Terminal Aerodrome Forecast
Issued by NWS Northern Indiana

Home | Current Version | Previous Version | Text Only | Print | Product List | Glossary Off
Versions: 1 2 3 4 5 6 7 8 9 10 11 12 13 14

000
FTUS43 KIWX 231100
TAFFWA
TAF
KFWA 231126Z 2312/2412 16011KT P6SM OVC035
      TEMPO 2312/2313 -SHRA
     FM231500 16012KT P6SM OVC035
     FM232000 13012KT 5SM -SHRA BR OVC015
     FM232300 12012KT 3SM RA BR OVC008 WS020/18050KT=

USA.gov is the U.S. government's official web portal to all federal, state and local government web resources and services.